METAR Data
IDs: Format: Raw Decoded Include TAF

Data at: 1419 UTC 27 Nov 2021

ESSP 271350Z AUTO 05012KT 9999 FEW140/// 01/M02 Q1000